sensor_id;sensor_type;location;lat;lon;timestamp;pressure;altitude;pressure_sealevel;temperature;humidity
71764;BME280;59602;52.142;5.408;2023-04-09T00:00:46;102779.75;;;9.88;83.66
71764;BME280;59602;52.142;5.408;2023-04-09T00:03:13;102779.41;;;9.89;83.72
71764;BME280;59602;52.142;5.408;2023-04-09T00:05:42;102785.97;;;9.88;83.97
71764;BME280;59602;52.142;5.408;2023-04-09T00:08:10;102780.88;;;9.87;83.54
71764;BME280;59602;52.142;5.408;2023-04-09T00:10:37;102778.59;;;9.89;83.72
71764;BME280;59602;52.142;5.408;2023-04-09T00:13:05;102777.03;;;9.88;83.78
71764;BME280;59602;52.142;5.408;2023-04-09T00:18:21;102785.16;;;9.88;83.36
71764;BME280;59602;52.142;5.408;2023-04-09T00:20:48;102785.97;;;9.88;83.26
71764;BME280;59602;52.142;5.408;2023-04-09T00:23:15;102780.53;;;9.88;83.41
71764;BME280;59602;52.142;5.408;2023-04-09T00:25:41;102776.72;;;9.89;83.29
71764;BME280;59602;52.142;5.408;2023-04-09T00:28:08;102770.13;;;9.90;83.07
71764;BME280;59602;52.142;5.408;2023-04-09T00:30:35;102773.63;;;9.91;83.71
71764;BME280;59602;52.142;5.408;2023-04-09T00:33:02;102768.19;;;9.91;83.30
71764;BME280;59602;52.142;5.408;2023-04-09T00:35:29;102771.75;;;9.91;82.93
71764;BME280;59602;52.142;5.408;2023-04-09T00:37:56;102767.88;;;9.92;82.97
71764;BME280;59602;52.142;5.408;2023-04-09T00:40:22;102775.25;;;9.92;83.41
71764;BME280;59602;52.142;5.408;2023-04-09T00:42:49;102772.19;;;9.93;83.04
71764;BME280;59602;52.142;5.408;2023-04-09T00:45:19;102767.09;;;9.92;82.90
71764;BME280;59602;52.142;5.408;2023-04-09T00:47:45;102763.91;;;9.90;83.14
71764;BME280;59602;52.142;5.408;2023-04-09T00:50:12;102761.97;;;9.90;83.04
71764;BME280;59602;52.142;5.408;2023-04-09T00:52:42;102762.78;;;9.91;83.30
71764;BME280;59602;52.142;5.408;2023-04-09T00:55:09;102757.34;;;9.91;83.41
71764;BME280;59602;52.142;5.408;2023-04-09T00:57:39;102757.34;;;9.91;83.16
71764;BME280;59602;52.142;5.408;2023-04-09T01:00:07;102757.69;;;9.89;83.19
71764;BME280;59602;52.142;5.408;2023-04-09T01:02:34;102751.44;;;9.89;83.53
71764;BME280;59602;52.142;5.408;2023-04-09T01:05:01;102754.97;;;9.89;83.62
71764;BME280;59602;52.142;5.408;2023-04-09T01:10:34;102749.84;;;9.88;83.43
71764;BME280;59602;52.142;5.408;2023-04-09T01:13:08;102753.34;;;9.88;83.76
71764;BME280;59602;52.142;5.408;2023-04-09T01:15:54;102747.91;;;9.88;83.44
71764;BME280;59602;52.142;5.408;2023-04-09T01:18:56;102745.56;;;9.87;83.59
71764;BME280;59602;52.142;5.408;2023-04-09T01:21:29;102742.03;;;9.86;83.37
71764;BME280;59602;52.142;5.408;2023-04-09T01:29:16;102743.94;;;9.86;83.52
71764;BME280;59602;52.142;5.408;2023-04-09T01:31:45;102746.97;;;9.84;83.64
71764;BME280;59602;52.142;5.408;2023-04-09T01:34:15;102743.47;;;9.84;83.28
71764;BME280;59602;52.142;5.408;2023-04-09T01:36:49;102737.25;;;9.83;83.39
71764;BME280;59602;52.142;5.408;2023-04-09T01:39:17;102736.13;;;9.84;83.00
71764;BME280;59602;52.142;5.408;2023-04-09T01:41:45;102736.47;;;9.83;83.19
71764;BME280;59602;52.142;5.408;2023-04-09T01:44:13;102731.81;;;9.83;82.99
71764;BME280;59602;52.142;5.408;2023-04-09T01:46:41;102717.91;;;9.85;83.29
71764;BME280;59602;52.142;5.408;2023-04-09T01:49:09;102726.06;;;9.85;83.22
71764;BME280;59602;52.142;5.408;2023-04-09T01:51:39;102726.84;;;9.85;83.12
71764;BME280;59602;52.142;5.408;2023-04-09T01:54:05;102734.22;;;9.85;83.27
71764;BME280;59602;52.142;5.408;2023-04-09T01:56:40;102734.53;;;9.83;83.79
71764;BME280;59602;52.142;5.408;2023-04-09T01:59:30;102730.69;;;9.84;83.68
71764;BME280;59602;52.142;5.408;2023-04-09T02:01:59;102724.44;;;9.84;83.92
71764;BME280;59602;52.142;5.408;2023-04-09T02:04:32;102724.44;;;9.84;83.87
71764;BME280;59602;52.142;5.408;2023-04-09T02:07:17;102729.88;;;9.84;84.01
71764;BME280;59602;52.142;5.408;2023-04-09T02:09:48;102727.97;;;9.84;84.04
71764;BME280;59602;52.142;5.408;2023-04-09T02:12:17;102725.25;;;9.84;84.10
71764;BME280;59602;52.142;5.408;2023-04-09T02:14:45;102714.72;;;9.83;84.02
71764;BME280;59602;52.142;5.408;2023-04-09T02:17:14;102719.34;;;9.82;84.17
71764;BME280;59602;52.142;5.408;2023-04-09T02:19:43;102720.94;;;9.83;84.12
71764;BME280;59602;52.142;5.408;2023-04-09T02:22:11;102714.38;;;9.84;84.35
71764;BME280;59602;52.142;5.408;2023-04-09T02:24:38;102712.78;;;9.83;84.25
71764;BME280;59602;52.142;5.408;2023-04-09T02:27:07;102707.03;;;9.85;84.17
71764;BME280;59602;52.142;5.408;2023-04-09T02:29:33;102708.16;;;9.84;83.96
71764;BME280;59602;52.142;5.408;2023-04-09T02:32:00;102705.44;;;9.84;84.10
71764;BME280;59602;52.142;5.408;2023-04-09T02:34:27;102703.84;;;9.83;84.45
71764;BME280;59602;52.142;5.408;2023-04-09T02:36:56;102705.44;;;9.84;84.49
71764;BME280;59602;52.142;5.408;2023-04-09T02:39:23;102701.47;;;9.81;84.25
71764;BME280;59602;52.142;5.408;2023-04-09T02:41:49;102704.19;;;9.81;84.20
71764;BME280;59602;52.142;5.408;2023-04-09T02:44:16;102701.47;;;9.81;84.34
71764;BME280;59602;52.142;5.408;2023-04-09T02:46:43;102703.38;;;9.81;84.12
71764;BME280;59602;52.142;5.408;2023-04-09T02:49:10;102698.75;;;9.81;84.49
71764;BME280;59602;52.142;5.408;2023-04-09T02:51:37;102697.94;;;9.81;84.12
71764;BME280;59602;52.142;5.408;2023-04-09T02:54:05;102692.53;;;9.81;84.24
71764;BME280;59602;52.142;5.408;2023-04-09T02:56:32;102701.00;;;9.79;84.13
71764;BME280;59602;52.142;5.408;2023-04-09T02:58:59;102693.63;;;9.80;84.16
71764;BME280;59602;52.142;5.408;2023-04-09T03:01:25;102690.91;;;9.80;84.32
71764;BME280;59602;52.142;5.408;2023-04-09T03:03:52;102693.63;;;9.80;84.44
71764;BME280;59602;52.142;5.408;2023-04-09T03:06:19;102693.97;;;9.78;84.68
71764;BME280;59602;52.142;5.408;2023-04-09T03:08:46;102697.81;;;9.77;84.35
71764;BME280;59602;52.142;5.408;2023-04-09T03:11:13;102690.44;;;9.77;84.38
71764;BME280;59602;52.142;5.408;2023-04-09T03:13:40;102695.88;;;9.77;84.44
71764;BME280;59602;52.142;5.408;2023-04-09T03:16:06;102689.66;;;9.77;84.58
71764;BME280;59602;52.142;5.408;2023-04-09T03:18:36;102688.84;;;9.76;84.51
71764;BME280;59602;52.142;5.408;2023-04-09T03:21:04;102692.69;;;9.75;84.59
71764;BME280;59602;52.142;5.408;2023-04-09T03:23:32;102689.97;;;9.75;84.39
71764;BME280;59602;52.142;5.408;2023-04-09T03:26:01;102682.16;;;9.74;84.34
71764;BME280;59602;52.142;5.408;2023-04-09T03:28:30;102681.81;;;9.75;84.47
71764;BME280;59602;52.142;5.408;2023-04-09T03:30:57;102678.00;;;9.76;84.33
71764;BME280;59602;52.142;5.408;2023-04-09T03:33:24;102683.44;;;9.76;84.21
71764;BME280;59602;52.142;5.408;2023-04-09T03:35:53;102684.22;;;9.77;84.72
71764;BME280;59602;52.142;5.408;2023-04-09T03:38:20;102672.56;;;9.76;84.32
71764;BME280;59602;52.142;5.408;2023-04-09T03:40:49;102675.94;;;9.73;84.07
71764;BME280;59602;52.142;5.408;2023-04-09T03:43:16;102672.88;;;9.75;84.12
71764;BME280;59602;52.142;5.408;2023-04-09T03:45:43;102676.06;;;9.77;84.08
71764;BME280;59602;52.142;5.408;2023-04-09T03:48:09;102670.94;;;9.75;83.84
71764;BME280;59602;52.142;5.408;2023-04-09T03:50:38;102671.41;;;9.77;83.67
71764;BME280;59602;52.142;5.408;2023-04-09T03:53:05;102672.25;;;9.78;83.70
71764;BME280;59602;52.142;5.408;2023-04-09T03:55:32;102669.84;;;9.76;83.98
71764;BME280;59602;52.142;5.408;2023-04-09T03:57:58;102660.91;;;9.76;84.02
71764;BME280;59602;52.142;5.408;2023-04-09T04:00:26;102665.53;;;9.75;84.20
71764;BME280;59602;52.142;5.408;2023-04-09T04:02:53;102666.66;;;9.74;83.81
71764;BME280;59602;52.142;5.408;2023-04-09T04:05:22;102668.13;;;9.72;84.13
71764;BME280;59602;52.142;5.408;2023-04-09T04:07:49;102665.09;;;9.73;84.04
71764;BME280;59602;52.142;5.408;2023-04-09T04:10:16;102670.50;;;9.73;84.00
71764;BME280;59602;52.142;5.408;2023-04-09T04:12:43;102665.53;;;9.75;84.00
71764;BME280;59602;52.142;5.408;2023-04-09T04:15:10;102670.50;;;9.73;84.38
71764;BME280;59602;52.142;5.408;2023-04-09T04:17:36;102673.66;;;9.75;84.41
71764;BME280;59602;52.142;5.408;2023-04-09T04:20:03;102664.72;;;9.75;84.30
71764;BME280;59602;52.142;5.408;2023-04-09T04:22:30;102659.31;;;9.75;84.38
71764;BME280;59602;52.142;5.408;2023-04-09T04:24:57;102662.81;;;9.75;84.20
71764;BME280;59602;52.142;5.408;2023-04-09T04:27:23;102662.38;;;9.73;84.57
71764;BME280;59602;52.142;5.408;2023-04-09T04:29:51;102658.81;;;9.73;84.06
71764;BME280;59602;52.142;5.408;2023-04-09T04:32:18;102656.47;;;9.71;84.28
71764;BME280;59602;52.142;5.408;2023-04-09T04:34:48;102651.34;;;9.70;83.71
71764;BME280;59602;52.142;5.408;2023-04-09T04:37:15;102652.94;;;9.71;83.65
71764;BME280;59602;52.142;5.408;2023-04-09T04:39:42;102658.72;;;9.69;83.99
71764;BME280;59602;52.142;5.408;2023-04-09T04:42:08;102659.81;;;9.68;83.94
71764;BME280;59602;52.142;5.408;2023-04-09T04:44:35;102657.09;;;9.68;83.82
71764;BME280;59602;52.142;5.408;2023-04-09T04:47:02;102666.50;;;9.71;84.20
71764;BME280;59602;52.142;5.408;2023-04-09T04:49:29;102662.69;;;9.72;83.72
71764;BME280;59602;52.142;5.408;2023-04-09T04:51:56;102660.75;;;9.72;84.21
71764;BME280;59602;52.142;5.408;2023-04-09T04:54:23;102659.50;;;9.70;83.76
71764;BME280;59602;52.142;5.408;2023-04-09T04:56:50;102656.78;;;9.70;84.14
71764;BME280;59602;52.142;5.408;2023-04-09T04:59:18;102663.00;;;9.70;84.29
71764;BME280;59602;52.142;5.408;2023-04-09T05:01:45;102656.00;;;9.69;84.17
71764;BME280;59602;52.142;5.408;2023-04-09T05:04:11;102659.50;;;9.70;84.40
71764;BME280;59602;52.142;5.408;2023-04-09T05:06:38;102659.81;;;9.68;84.20
71764;BME280;59602;52.142;5.408;2023-04-09T05:09:05;102656.78;;;9.70;83.76
71764;BME280;59602;52.142;5.408;2023-04-09T05:11:31;102656.00;;;9.69;83.16
71764;BME280;59602;52.142;5.408;2023-04-09T05:13:58;102646.22;;;9.68;83.48
71764;BME280;59602;52.142;5.408;2023-04-09T05:16:25;102652.00;;;9.67;83.17
71764;BME280;59602;52.142;5.408;2023-04-09T05:18:52;102652.47;;;9.69;83.06
71764;BME280;59602;52.142;5.408;2023-04-09T05:21:19;102653.28;;;9.69;83.33
71764;BME280;59602;52.142;5.408;2023-04-09T05:23:46;102656.78;;;9.70;83.61
71764;BME280;59602;52.142;5.408;2023-04-09T05:26:13;102655.16;;;9.69;83.00
71764;BME280;59602;52.142;5.408;2023-04-09T05:28:40;102660.28;;;9.70;83.17
71764;BME280;59602;52.142;5.408;2023-04-09T05:31:07;102662.69;;;9.72;83.16
71764;BME280;59602;52.142;5.408;2023-04-09T05:33:38;102660.59;;;9.69;82.81
71764;BME280;59602;52.142;5.408;2023-04-09T05:36:05;102659.81;;;9.68;82.88
71764;BME280;59602;52.142;5.408;2023-04-09T05:38:33;102658.72;;;9.69;83.04
71764;BME280;59602;52.142;5.408;2023-04-09T05:41:00;102669.56;;;9.69;83.13
71764;BME280;59602;52.142;5.408;2023-04-09T05:43:26;102667.19;;;9.68;82.62
71764;BME280;59602;52.142;5.408;2023-04-09T05:45:53;102670.38;;;9.70;82.27
71764;BME280;59602;52.142;5.408;2023-04-09T05:48:20;102673.06;;;9.70;82.22
71764;BME280;59602;52.142;5.408;2023-04-09T05:50:49;102668.44;;;9.70;82.56
71764;BME280;59602;52.142;5.408;2023-04-09T05:53:21;102666.19;;;9.72;82.71
71764;BME280;59602;52.142;5.408;2023-04-09T05:55:48;102668.91;;;9.72;82.72
71764;BME280;59602;52.142;5.408;2023-04-09T05:58:14;102682.16;;;9.74;82.57
71764;BME280;59602;52.142;5.408;2023-04-09T06:00:41;102677.84;;;9.73;82.68
71764;BME280;59602;52.142;5.408;2023-04-09T06:03:08;102667.44;;;9.75;82.16
71764;BME280;59602;52.142;5.408;2023-04-09T06:05:35;102674.81;;;9.74;81.61
71764;BME280;59602;52.142;5.408;2023-04-09T06:08:02;102672.75;;;9.71;81.31
71764;BME280;59602;52.142;5.408;2023-04-09T06:10:31;102674.66;;;9.71;81.10
71764;BME280;59602;52.142;5.408;2023-04-09T06:12:59;102675.13;;;9.73;81.46
71764;BME280;59602;52.142;5.408;2023-04-09T06:15:26;102675.59;;;9.75;81.21
71764;BME280;59602;52.142;5.408;2023-04-09T06:17:53;102676.38;;;9.75;81.27
71764;BME280;59602;52.142;5.408;2023-04-09T06:20:22;102679.09;;;9.75;81.05
71764;BME280;59602;52.142;5.408;2023-04-09T06:22:48;102678.00;;;9.76;80.55
71764;BME280;59602;52.142;5.408;2023-04-09T06:25:15;102668.72;;;9.77;80.52
71764;BME280;59602;52.142;5.408;2023-04-09T06:27:42;102681.19;;;9.79;80.45
71764;BME280;59602;52.142;5.408;2023-04-09T06:30:32;102681.66;;;9.81;80.65
71764;BME280;59602;52.142;5.408;2023-04-09T06:33:15;102681.31;;;9.82;80.67
71764;BME280;59602;52.142;5.408;2023-04-09T06:36:05;102693.00;;;9.83;80.07
71764;BME280;59602;52.142;5.408;2023-04-09T06:38:46;102693.78;;;9.83;80.95
71764;BME280;59602;52.142;5.408;2023-04-09T06:44:09;102695.97;;;9.90;80.62
71764;BME280;59602;52.142;5.408;2023-04-09T06:47:07;102693.38;;;9.93;80.45
71764;BME280;59602;52.142;5.408;2023-04-09T06:49:58;102692.75;;;9.96;80.80
71764;BME280;59602;52.142;5.408;2023-04-09T06:52:27;102697.03;;;9.97;80.70
71764;BME280;59602;52.142;5.408;2023-04-09T06:54:56;102692.06;;;10.00;80.99
71764;BME280;59602;52.142;5.408;2023-04-09T06:57:44;102697.66;;;10.03;80.87
71764;BME280;59602;52.142;5.408;2023-04-09T07:00:13;102699.38;;;10.08;81.10
71764;BME280;59602;52.142;5.408;2023-04-09T07:02:40;102693.63;;;10.09;81.50
71764;BME280;59602;52.142;5.408;2023-04-09T07:05:11;102699.53;;;10.11;81.44
71764;BME280;59602;52.142;5.408;2023-04-09T07:08:10;102697.13;;;10.10;81.32
71764;BME280;59602;52.142;5.408;2023-04-09T07:11:12;102700.31;;;10.12;80.99
71764;BME280;59602;52.142;5.408;2023-04-09T07:17:35;102697.56;;;10.21;80.96
71764;BME280;59602;52.142;5.408;2023-04-09T07:20:25;102696.19;;;10.27;80.67
71764;BME280;59602;52.142;5.408;2023-04-09T07:22:52;102697.97;;;10.31;80.53
71764;BME280;59602;52.142;5.408;2023-04-09T07:25:22;102703.22;;;10.36;80.08
71764;BME280;59602;52.142;5.408;2023-04-09T07:28:03;102697.25;;;10.43;79.42
71764;BME280;59602;52.142;5.408;2023-04-09T07:30:44;102712.69;;;10.51;79.19
71764;BME280;59602;52.142;5.408;2023-04-09T07:33:14;102702.41;;;10.57;78.42
71764;BME280;59602;52.142;5.408;2023-04-09T07:35:41;102708.25;;;10.68;77.14
71764;BME280;59602;52.142;5.408;2023-04-09T07:38:14;102713.00;;;10.71;77.06
71764;BME280;59602;52.142;5.408;2023-04-09T07:42:01;102712.72;;;10.85;76.71
71764;BME280;59602;52.142;5.408;2023-04-09T07:45:16;102710.25;;;10.92;76.21
71764;BME280;59602;52.142;5.408;2023-04-09T07:54:03;102714.63;;;11.17;75.32
71764;BME280;59602;52.142;5.408;2023-04-09T07:56:29;102703.50;;;11.22;74.62
71764;BME280;59602;52.142;5.408;2023-04-09T07:58:56;102705.81;;;11.33;73.82
71764;BME280;59602;52.142;5.408;2023-04-09T08:01:44;102703.44;;;11.43;73.09
71764;BME280;59602;52.142;5.408;2023-04-09T08:08:07;102696.41;;;11.55;71.68
71764;BME280;59602;52.142;5.408;2023-04-09T08:10:34;102701.88;;;11.55;71.38
71764;BME280;59602;52.142;5.408;2023-04-09T08:13:01;102701.06;;;11.54;71.15
71764;BME280;59602;52.142;5.408;2023-04-09T08:15:30;102703.09;;;11.57;71.38
71764;BME280;59602;52.142;5.408;2023-04-09T08:18:39;102707.31;;;11.67;71.35
71764;BME280;59602;52.142;5.408;2023-04-09T08:21:08;102704.38;;;11.72;71.62
71764;BME280;59602;52.142;5.408;2023-04-09T08:24:05;102698.56;;;11.86;71.50
71764;BME280;59602;52.142;5.408;2023-04-09T08:26:37;102699.47;;;12.02;70.41
71764;BME280;59602;52.142;5.408;2023-04-09T08:29:57;102705.75;;;11.91;70.31
71764;BME280;59602;52.142;5.408;2023-04-09T08:32:39;102712.19;;;11.86;70.79
71764;BME280;59602;52.142;5.408;2023-04-09T08:39:00;102706.97;;;12.05;70.74
71764;BME280;59602;52.142;5.408;2023-04-09T08:41:46;102710.13;;;12.20;70.35
71764;BME280;59602;52.142;5.408;2023-04-09T08:53:56;102703.97;;;12.23;69.37
71764;BME280;59602;52.142;5.408;2023-04-09T09:04:04;102689.63;;;12.38;69.72
71764;BME280;59602;52.142;5.408;2023-04-09T09:10:15;102684.06;;;12.63;69.02
71764;BME280;59602;52.142;5.408;2023-04-09T09:12:43;102685.06;;;12.71;68.69
71764;BME280;59602;52.142;5.408;2023-04-09T09:15:25;102686.25;;;12.57;68.81
71764;BME280;59602;52.142;5.408;2023-04-09T09:17:56;102684.22;;;12.54;68.38
71764;BME280;59602;52.142;5.408;2023-04-09T09:20:24;102684.44;;;12.61;68.45
71764;BME280;59602;52.142;5.408;2023-04-09T09:22:53;102677.13;;;12.65;69.96
71764;BME280;59602;52.142;5.408;2023-04-09T09:25:21;102684.84;;;12.63;68.67
71764;BME280;59602;52.142;5.408;2023-04-09T09:27:52;102685.25;;;12.50;69.06
71764;BME280;59602;52.142;5.408;2023-04-09T09:30:22;102676.41;;;12.53;69.30
71764;BME280;59602;52.142;5.408;2023-04-09T09:32:53;102677.72;;;12.59;69.23
71764;BME280;59602;52.142;5.408;2023-04-09T09:35:20;102673.84;;;12.60;69.19
71764;BME280;59602;52.142;5.408;2023-04-09T09:38:00;102670.88;;;12.65;69.22
71764;BME280;59602;52.142;5.408;2023-04-09T09:40:26;102672.09;;;12.67;69.18
71764;BME280;59602;52.142;5.408;2023-04-09T09:42:55;102667.44;;;12.68;68.45
71764;BME280;59602;52.142;5.408;2023-04-09T09:45:23;102665.25;;;12.74;69.68
71764;BME280;59602;52.142;5.408;2023-04-09T09:47:51;102676.13;;;12.86;70.00
71764;BME280;59602;52.142;5.408;2023-04-09T09:50:22;102673.75;;;13.00;68.76
71764;BME280;59602;52.142;5.408;2023-04-09T09:53:02;102671.28;;;12.95;67.48
71764;BME280;59602;52.142;5.408;2023-04-09T09:55:31;102669.78;;;12.98;67.83
71764;BME280;59602;52.142;5.408;2023-04-09T09:58:01;102661.78;;;13.05;68.28
71764;BME280;59602;52.142;5.408;2023-04-09T10:00:30;102664.25;;;13.10;68.16
71764;BME280;59602;52.142;5.408;2023-04-09T10:03:06;102656.59;;;13.16;67.75
71764;BME280;59602;52.142;5.408;2023-04-09T10:05:37;102657.81;;;13.18;68.14
71764;BME280;59602;52.142;5.408;2023-04-09T10:08:06;102653.94;;;13.19;66.89
71764;BME280;59602;52.142;5.408;2023-04-09T10:10:33;102650.41;;;13.19;67.28
71764;BME280;59602;52.142;5.408;2023-04-09T10:13:05;102654.13;;;13.26;67.06
71764;BME280;59602;52.142;5.408;2023-04-09T10:15:32;102647.72;;;13.35;66.80
71764;BME280;59602;52.142;5.408;2023-04-09T10:17:59;102642.25;;;13.35;66.09
71764;BME280;59602;52.142;5.408;2023-04-09T10:20:35;102637.59;;;13.35;66.36
71764;BME280;59602;52.142;5.408;2023-04-09T10:23:10;102631.91;;;13.44;67.24
71764;BME280;59602;52.142;5.408;2023-04-09T10:25:41;102632.09;;;13.51;65.61
71764;BME280;59602;52.142;5.408;2023-04-09T10:28:16;102624.69;;;13.52;65.32
71764;BME280;59602;52.142;5.408;2023-04-09T10:30:45;102616.31;;;13.60;65.45
71764;BME280;59602;52.142;5.408;2023-04-09T10:33:13;102623.50;;;13.68;65.12
71764;BME280;59602;52.142;5.408;2023-04-09T10:35:41;102616.69;;;13.78;64.93
71764;BME280;59602;52.142;5.408;2023-04-09T10:38:08;102618.25;;;13.79;63.62
71764;BME280;59602;52.142;5.408;2023-04-09T10:40:41;102610.06;;;13.79;64.32
71764;BME280;59602;52.142;5.408;2023-04-09T10:43:12;102608.72;;;13.89;63.61
71764;BME280;59602;52.142;5.408;2023-04-09T10:45:40;102608.91;;;14.00;63.39
71764;BME280;59602;52.142;5.408;2023-04-09T10:48:11;102605.53;;;14.06;63.24
71764;BME280;59602;52.142;5.408;2023-04-09T10:50:43;102602.88;;;13.90;63.65
71764;BME280;59602;52.142;5.408;2023-04-09T10:53:24;102599.69;;;13.88;63.48
71764;BME280;59602;52.142;5.408;2023-04-09T10:55:52;102602.22;;;13.97;63.04
71764;BME280;59602;52.142;5.408;2023-04-09T10:58:19;102601.09;;;14.18;62.29
71764;BME280;59602;52.142;5.408;2023-04-09T11:00:48;102598.72;;;14.16;62.23
71764;BME280;59602;52.142;5.408;2023-04-09T11:03:28;102592.38;;;14.12;62.86
71764;BME280;59602;52.142;5.408;2023-04-09T11:06:02;102591.28;;;14.17;63.15
71764;BME280;59602;52.142;5.408;2023-04-09T11:08:31;102582.53;;;14.27;61.67
71764;BME280;59602;52.142;5.408;2023-04-09T11:10:59;102574.50;;;14.38;61.27
71764;BME280;59602;52.142;5.408;2023-04-09T11:13:29;102582.63;;;14.53;61.97
71764;BME280;59602;52.142;5.408;2023-04-09T11:15:57;102588.31;;;14.45;60.49
71764;BME280;59602;52.142;5.408;2023-04-09T11:18:27;102587.94;;;14.46;60.35
71764;BME280;59602;52.142;5.408;2023-04-09T11:20:55;102581.56;;;14.58;59.35
71764;BME280;59602;52.142;5.408;2023-04-09T11:23:23;102584.00;;;14.63;58.95
71764;BME280;59602;52.142;5.408;2023-04-09T11:25:52;102584.19;;;14.74;58.99
71764;BME280;59602;52.142;5.408;2023-04-09T11:28:19;102578.06;;;14.84;57.93
71764;BME280;59602;52.142;5.408;2023-04-09T11:30:48;102578.69;;;14.97;57.64
71764;BME280;59602;52.142;5.408;2023-04-09T11:33:15;102566.44;;;14.91;56.73
71764;BME280;59602;52.142;5.408;2023-04-09T11:35:45;102574.09;;;14.78;56.63
71764;BME280;59602;52.142;5.408;2023-04-09T11:38:12;102571.78;;;14.80;56.80
71764;BME280;59602;52.142;5.408;2023-04-09T11:40:40;102570.16;;;14.79;56.77
71764;BME280;59602;52.142;5.408;2023-04-09T11:43:14;102564.53;;;14.91;55.63
71764;BME280;59602;52.142;5.408;2023-04-09T11:45:42;102569.47;;;15.09;55.27
71764;BME280;59602;52.142;5.408;2023-04-09T11:48:09;102574.66;;;15.14;55.71
71764;BME280;59602;52.142;5.408;2023-04-09T11:50:37;102565.84;;;15.28;55.28
71764;BME280;59602;52.142;5.408;2023-04-09T11:53:18;102579.13;;;15.26;55.35
71764;BME280;59602;52.142;5.408;2023-04-09T11:55:50;102566.47;;;15.18;54.16
71764;BME280;59602;52.142;5.408;2023-04-09T11:58:17;102560.81;;;15.07;54.11
71764;BME280;59602;52.142;5.408;2023-04-09T12:00:47;102552.31;;;15.12;54.77
71764;BME280;59602;52.142;5.408;2023-04-09T12:03:14;102559.16;;;15.25;55.23
71764;BME280;59602;52.142;5.408;2023-04-09T12:05:44;102565.25;;;15.15;53.99
71764;BME280;59602;52.142;5.408;2023-04-09T12:08:22;102557.56;;;15.24;52.39
71764;BME280;59602;52.142;5.408;2023-04-09T12:10:50;102557.38;;;15.36;52.96
71764;BME280;59602;52.142;5.408;2023-04-09T12:13:19;102544.75;;;15.59;54.74
71764;BME280;59602;52.142;5.408;2023-04-09T12:15:48;102549.56;;;15.69;52.70
71764;BME280;59602;52.142;5.408;2023-04-09T12:18:14;102543.56;;;15.60;52.74
71764;BME280;59602;52.142;5.408;2023-04-09T12:20:43;102551.38;;;15.57;53.04
71764;BME280;59602;52.142;5.408;2023-04-09T12:23:11;102542.94;;;15.70;52.72
71764;BME280;59602;52.142;5.408;2023-04-09T12:25:39;102553.59;;;15.75;51.27
71764;BME280;59602;52.142;5.408;2023-04-09T12:28:08;102543.78;;;15.74;50.31
71764;BME280;59602;52.142;5.408;2023-04-09T12:30:35;102535.94;;;15.76;51.34
71764;BME280;59602;52.142;5.408;2023-04-09T12:33:02;102542.66;;;15.79;50.53
71764;BME280;59602;52.142;5.408;2023-04-09T12:35:30;102541.97;;;15.85;49.85
71764;BME280;59602;52.142;5.408;2023-04-09T12:37:58;102544.72;;;15.85;51.29
71764;BME280;59602;52.142;5.408;2023-04-09T12:40:26;102541.56;;;15.87;50.04
71764;BME280;59602;52.142;5.408;2023-04-09T12:42:52;102546.69;;;15.88;49.97
71764;BME280;59602;52.142;5.408;2023-04-09T12:45:20;102538.47;;;15.88;48.91
71764;BME280;59602;52.142;5.408;2023-04-09T12:47:47;102546.78;;;15.95;49.27
71764;BME280;59602;52.142;5.408;2023-04-09T12:50:14;102542.06;;;15.96;49.31
71764;BME280;59602;52.142;5.408;2023-04-09T12:55:09;102542.47;;;15.98;50.88
71764;BME280;59602;52.142;5.408;2023-04-09T12:57:37;102541.00;;;16.04;50.34
71764;BME280;59602;52.142;5.408;2023-04-09T13:00:06;102539.44;;;16.07;48.70
71764;BME280;59602;52.142;5.408;2023-04-09T13:02:33;102554.38;;;16.09;50.50
71764;BME280;59602;52.142;5.408;2023-04-09T13:05:00;102536.69;;;16.03;47.10
71764;BME280;59602;52.142;5.408;2023-04-09T13:07:27;102546.84;;;16.03;47.96
71764;BME280;59602;52.142;5.408;2023-04-09T13:09:56;102531.91;;;15.96;47.80
71764;BME280;59602;52.142;5.408;2023-04-09T13:12:23;102529.59;;;15.98;48.21
71764;BME280;59602;52.142;5.408;2023-04-09T13:14:52;102535.72;;;15.88;48.96
71764;BME280;59602;52.142;5.408;2023-04-09T13:17:20;102529.09;;;15.93;48.59
71764;BME280;59602;52.142;5.408;2023-04-09T13:19:48;102525.88;;;15.84;48.48
71764;BME280;59602;52.142;5.408;2023-04-09T13:22:15;102531.31;;;15.80;49.61
71764;BME280;59602;52.142;5.408;2023-04-09T13:24:42;102533.81;;;15.92;49.35
71764;BME280;59602;52.142;5.408;2023-04-09T13:27:09;102532.22;;;15.91;47.41
71764;BME280;59602;52.142;5.408;2023-04-09T13:29:36;102543.44;;;15.79;48.29
71764;BME280;59602;52.142;5.408;2023-04-09T13:32:03;102534.59;;;15.63;48.64
71764;BME280;59602;52.142;5.408;2023-04-09T13:34:33;102537.28;;;15.59;48.74
71764;BME280;59602;52.142;5.408;2023-04-09T13:37:02;102539.69;;;15.64;49.49
71764;BME280;59602;52.142;5.408;2023-04-09T13:39:28;102520.75;;;15.82;48.94
71764;BME280;59602;52.142;5.408;2023-04-09T13:41:55;102524.91;;;16.03;48.53
71764;BME280;59602;52.142;5.408;2023-04-09T13:44:23;102519.53;;;16.13;47.44
71764;BME280;59602;52.142;5.408;2023-04-09T13:50:56;102523.28;;;15.98;48.95
71764;BME280;59602;52.142;5.408;2023-04-09T13:55:05;102511.28;;;16.10;48.17
71764;BME280;59602;52.142;5.408;2023-04-09T14:01:52;102493.38;;;16.27;48.47
71764;BME280;59602;52.142;5.408;2023-04-09T14:07:57;102493.84;;;16.36;48.13
71764;BME280;59602;52.142;5.408;2023-04-09T14:11:06;102496.66;;;16.39;46.58
71764;BME280;59602;52.142;5.408;2023-04-09T14:17:13;102491.56;;;16.42;45.87
71764;BME280;59602;52.142;5.408;2023-04-09T14:19:40;102492.34;;;16.42;47.46
71764;BME280;59602;52.142;5.408;2023-04-09T14:22:08;102484.16;;;16.46;46.23
71764;BME280;59602;52.142;5.408;2023-04-09T14:24:40;102480.97;;;16.40;46.00